createdAt,value
2023-05-15T00:00:06.579Z,98024.72
2023-05-15T00:02:57.838Z,98020.38
2023-05-15T00:05:44.030Z,97879.09
2023-05-15T00:08:29.499Z,98002.72
2023-05-15T00:11:14.953Z,97874.94
2023-05-15T00:14:00.865Z,98020.69
2023-05-15T00:16:47.969Z,97940.47
2023-05-15T00:19:33.553Z,98020.03
2023-05-15T00:22:18.852Z,97887.50
2023-05-15T00:25:04.612Z,98014.09
2023-05-15T00:27:50.391Z,98011.09
2023-05-15T00:30:35.857Z,98002.38
2023-05-15T00:33:21.405Z,97976.00
2023-05-15T00:36:07.301Z,98000.91
2023-05-15T00:38:54.011Z,97984.81
2023-05-15T00:41:41.324Z,97958.56
2023-05-15T00:44:28.079Z,97948.19
2023-05-15T00:47:15.465Z,97809.09
2023-05-15T00:50:02.051Z,97820.47
2023-05-15T00:52:47.698Z,97884.34
2023-05-15T00:55:34.241Z,97983.47
2023-05-15T00:58:22.100Z,97942.69
2023-05-15T01:01:09.775Z,97983.25
2023-05-15T01:03:55.373Z,97984.25
2023-05-15T01:06:40.936Z,98011.66
2023-05-15T01:09:30.080Z,97992.75
2023-05-15T01:12:18.560Z,97982.78
2023-05-15T01:15:04.174Z,97984.25
2023-05-15T01:17:50.701Z,97852.66
2023-05-15T01:21:11.196Z,97968.84
2023-05-15T01:24:08.313Z,97970.41
2023-05-15T01:27:06.392Z,97973.22
2023-05-15T01:30:13.778Z,97973.22
2023-05-15T01:33:00.398Z,97989.84
2023-05-15T01:35:52.003Z,97958.31
2023-05-15T01:38:49.178Z,97932.19
2023-05-15T01:41:52.271Z,97982.56
2023-05-15T01:44:46.537Z,97855.44
2023-05-15T01:47:39.602Z,97964.38
2023-05-15T01:50:27.903Z,97898.00
2023-05-15T01:53:15.149Z,97895.88
2023-05-15T01:56:02.731Z,97925.88
2023-05-15T01:58:48.736Z,97955.16
2023-05-15T02:01:36.467Z,97951.53
2023-05-15T02:04:22.491Z,97911.84
2023-05-15T02:07:09.098Z,97918.81
2023-05-15T02:09:55.920Z,97915.47
2023-05-15T02:12:42.517Z,97974.94
2023-05-15T02:15:29.636Z,97787.16
2023-05-15T02:18:15.450Z,97958.56
2023-05-15T02:21:03.559Z,97931.84
2023-05-15T02:23:49.340Z,97894.19
2023-05-15T02:26:53.248Z,97928.44
2023-05-15T02:30:00.620Z,97922.13
2023-05-15T02:33:23.570Z,97918.75
2023-05-15T02:36:14.005Z,97943.13
2023-05-15T02:39:00.763Z,97894.31
2023-05-15T02:41:47.666Z,97774.69
2023-05-15T02:44:36.644Z,97863.84
2023-05-15T02:47:23.803Z,97913.41
2023-05-15T02:50:10.274Z,97846.88
2023-05-15T02:53:06.060Z,97908.78
2023-05-15T02:55:52.212Z,97737.03
2023-05-15T02:58:38.657Z,97901.31
2023-05-15T03:01:24.187Z,97716.47
2023-05-15T03:04:09.501Z,97877.41
2023-05-15T03:06:54.932Z,97734.34
2023-05-15T03:09:41.148Z,97838.31
2023-05-15T03:12:26.880Z,97808.41
2023-05-15T03:15:12.076Z,97714.81
2023-05-15T03:17:57.781Z,97720.00
2023-05-15T03:20:43.674Z,97706.47
2023-05-15T03:23:28.984Z,97758.41
2023-05-15T03:26:14.510Z,97709.00
2023-05-15T03:29:01.112Z,97801.03
2023-05-15T03:31:46.733Z,97711.56
2023-05-15T03:34:32.529Z,97802.84
2023-05-15T03:37:18.048Z,97856.16
2023-05-15T03:40:04.422Z,97691.06
2023-05-15T03:42:53.334Z,97671.69
2023-05-15T03:45:39.192Z,97703.63
2023-05-15T03:48:24.547Z,97831.44
2023-05-15T03:51:10.131Z,97869.38
2023-05-15T03:53:58.629Z,97842.94
2023-05-15T03:56:44.769Z,97792.41
2023-05-15T03:59:30.009Z,97674.94
2023-05-15T04:02:15.505Z,97868.91
2023-05-15T04:05:00.895Z,97763.72
2023-05-15T04:07:46.116Z,97689.03
2023-05-15T04:10:32.732Z,97646.94
2023-05-15T04:13:18.421Z,97830.38
2023-05-15T04:16:04.448Z,97799.94
2023-05-15T04:18:49.788Z,97850.53
2023-05-15T04:21:35.097Z,97658.13
2023-05-15T04:24:20.476Z,97652.44
2023-05-15T04:27:05.878Z,97803.41
2023-05-15T04:29:51.133Z,97618.09
2023-05-15T04:32:37.911Z,97650.00
2023-05-15T04:35:23.554Z,97808.75
2023-05-15T04:38:08.900Z,97827.25
2023-05-15T04:40:54.615Z,97820.44
2023-05-15T04:43:41.344Z,97817.03
2023-05-15T04:46:29.214Z,97592.75
2023-05-15T04:49:14.709Z,97765.00
2023-05-15T04:52:00.014Z,97792.50
2023-05-15T04:54:48.001Z,97767.59
2023-05-15T04:57:33.594Z,97613.56
2023-05-15T05:00:18.932Z,97828.34
2023-05-15T05:03:04.932Z,97749.59
2023-05-15T05:05:50.457Z,97743.69
2023-05-15T05:08:36.065Z,97688.78
2023-05-15T05:11:21.598Z,97607.34
2023-05-15T05:14:07.938Z,97754.34
2023-05-15T05:16:53.253Z,97775.41
2023-05-15T05:19:38.542Z,97632.13
2023-05-15T05:22:24.017Z,97805.44
2023-05-15T05:25:10.142Z,97599.91
2023-05-15T05:27:55.843Z,97758.69
2023-05-15T05:30:48.414Z,97684.13
2023-05-15T05:33:34.903Z,97757.78
2023-05-15T05:36:20.492Z,97733.13
2023-05-15T05:39:06.047Z,97771.16
2023-05-15T05:41:51.536Z,97635.25
2023-05-15T05:44:36.793Z,97719.50
2023-05-15T05:47:22.459Z,97743.44
2023-05-15T05:50:08.389Z,97592.06
2023-05-15T05:52:53.782Z,97622.22
2023-05-15T05:55:39.052Z,97728.78
2023-05-15T05:58:25.893Z,97718.31
2023-05-15T06:01:12.130Z,97716.34
2023-05-15T06:03:57.914Z,97745.69
2023-05-15T06:06:43.584Z,97713.88
2023-05-15T06:09:29.601Z,97570.34
2023-05-15T06:12:14.906Z,97631.78
2023-05-15T06:15:00.323Z,97762.22
2023-05-15T06:17:45.575Z,97751.66
2023-05-15T06:20:31.241Z,97745.81
2023-05-15T06:23:17.189Z,97739.41
2023-05-15T06:26:03.579Z,97575.22
2023-05-15T06:28:49.152Z,97602.56
2023-05-15T06:31:34.632Z,97671.75
2023-05-15T06:34:20.508Z,97718.09
2023-05-15T06:37:06.085Z,97726.25
2023-05-15T06:39:51.140Z,97756.72
2023-05-15T06:42:37.058Z,97670.72
2023-05-15T06:45:22.684Z,97698.50
2023-05-15T06:48:08.769Z,97703.59
2023-05-15T06:50:54.519Z,97748.69
2023-05-15T06:53:41.940Z,97727.78
2023-05-15T06:56:27.428Z,97667.19
2023-05-15T06:59:12.996Z,97717.03
2023-05-15T07:01:58.285Z,97730.34
2023-05-15T07:04:46.561Z,97696.28
2023-05-15T07:07:31.912Z,97643.66
2023-05-15T07:10:18.023Z,97764.94
2023-05-15T07:13:03.258Z,97605.53
2023-05-15T07:15:49.088Z,97588.94
2023-05-15T07:18:34.670Z,97694.03
2023-05-15T07:21:19.899Z,97738.97
2023-05-15T07:24:05.870Z,97707.22
2023-05-15T07:29:42.804Z,97747.31
2023-05-15T07:32:28.400Z,97577.91
2023-05-15T07:35:13.700Z,97679.22
2023-05-15T07:37:58.997Z,97747.00
2023-05-15T07:40:44.315Z,97740.28
2023-05-15T07:43:29.821Z,97739.06
2023-05-15T07:46:15.302Z,97736.81
2023-05-15T07:49:00.803Z,97728.50
2023-05-15T07:51:46.206Z,97614.88
2023-05-15T07:54:32.161Z,97698.31
2023-05-15T07:57:17.540Z,97727.84
2023-05-15T08:00:10.064Z,97680.34
2023-05-15T08:03:00.137Z,97723.81
2023-05-15T08:05:45.952Z,97683.91
2023-05-15T08:08:31.334Z,97668.72
2023-05-15T08:11:18.255Z,97720.88
2023-05-15T08:14:03.844Z,97654.84
2023-05-15T08:16:51.460Z,97553.88
2023-05-15T08:19:37.075Z,97730.03
2023-05-15T08:22:22.444Z,97587.22
2023-05-15T08:25:08.802Z,97697.00
2023-05-15T08:27:53.977Z,97716.88
2023-05-15T08:30:39.385Z,97702.38
2023-05-15T08:33:24.766Z,97717.31
2023-05-15T08:36:10.299Z,97556.34
2023-05-15T08:38:55.835Z,97715.41
2023-05-15T08:41:51.366Z,97541.78
2023-05-15T08:44:37.044Z,97683.09
2023-05-15T08:47:23.561Z,97658.56
2023-05-15T08:50:12.660Z,97554.75
2023-05-15T08:53:00.323Z,97669.91
2023-05-15T08:55:46.046Z,97669.50
2023-05-15T08:58:32.639Z,97621.19
2023-05-15T09:01:18.248Z,97703.66
2023-05-15T09:04:04.508Z,97539.81
2023-05-15T09:06:49.961Z,97581.59
2023-05-15T09:09:36.631Z,97711.13
2023-05-15T09:12:24.830Z,97710.97
2023-05-15T09:15:18.832Z,97707.25
2023-05-15T09:18:06.136Z,97713.47
2023-05-15T09:20:52.097Z,97656.44
2023-05-15T09:23:38.645Z,97662.06
2023-05-15T09:26:25.110Z,97706.19
2023-05-15T09:29:11.633Z,97531.38
2023-05-15T09:31:57.681Z,97672.06
2023-05-15T09:34:44.856Z,97697.84
2023-05-15T09:37:34.320Z,97542.63
2023-05-15T09:40:19.583Z,97578.31
2023-05-15T09:43:05.522Z,97633.38
2023-05-15T09:45:51.197Z,97703.38
2023-05-15T09:48:36.972Z,97622.59
2023-05-15T09:51:22.791Z,97727.25
2023-05-15T09:54:15.554Z,97596.19
2023-05-15T09:57:12.008Z,97707.78
2023-05-15T10:00:05.183Z,97570.88
2023-05-15T10:03:07.403Z,97537.34
2023-05-15T10:05:59.934Z,97675.66
2023-05-15T10:08:52.525Z,97677.16
2023-05-15T10:11:40.247Z,97702.59
2023-05-15T10:14:26.835Z,97707.06
2023-05-15T10:17:14.216Z,97687.56
2023-05-15T10:20:00.863Z,97683.50
2023-05-15T10:22:56.531Z,97685.13
2023-05-15T10:26:00.055Z,97564.22
2023-05-15T10:28:46.585Z,97652.75
2023-05-15T10:31:32.968Z,97658.75
2023-05-15T10:34:19.003Z,97520.84
2023-05-15T10:37:05.954Z,97652.00
2023-05-15T10:39:55.993Z,97688.16
2023-05-15T10:42:43.584Z,97713.75
2023-05-15T10:45:31.407Z,97557.44
2023-05-15T10:48:17.751Z,97666.72
2023-05-15T10:51:03.310Z,97692.59
2023-05-15T10:53:49.422Z,97568.09
2023-05-15T10:56:38.379Z,97689.84
2023-05-15T10:59:32.684Z,97652.56
2023-05-15T11:02:29.572Z,97503.81
2023-05-15T11:05:14.887Z,97617.03
2023-05-15T11:08:15.649Z,97665.13
2023-05-15T11:11:01.434Z,97488.31
2023-05-15T11:14:05.685Z,97668.84
2023-05-15T11:16:54.465Z,97675.19
2023-05-15T11:19:49.078Z,97683.69
2023-05-15T11:22:36.102Z,97584.69
2023-05-15T11:25:29.977Z,97657.13
2023-05-15T11:28:26.055Z,97615.44
2023-05-15T11:31:11.953Z,97625.41
2023-05-15T11:33:57.981Z,97543.91
2023-05-15T11:36:43.718Z,97669.16
2023-05-15T11:39:29.593Z,97651.50
2023-05-15T11:42:15.138Z,97538.72
2023-05-15T11:45:01.123Z,97669.34
2023-05-15T11:47:47.259Z,97658.91
2023-05-15T11:50:35.039Z,97641.28
2023-05-15T11:53:24.106Z,97537.06
2023-05-15T11:56:23.249Z,97631.75
2023-05-15T11:59:12.182Z,97636.09
2023-05-15T12:01:59.672Z,97629.97
2023-05-15T12:04:45.194Z,97632.22
2023-05-15T12:07:31.555Z,97639.31
2023-05-15T12:10:17.554Z,97645.75
2023-05-15T12:13:03.453Z,97516.66
2023-05-15T12:15:48.782Z,97628.69
2023-05-15T12:18:34.664Z,97484.53
2023-05-15T12:21:20.983Z,97632.34
2023-05-15T12:24:08.125Z,97620.22
2023-05-15T12:26:55.976Z,97628.75
2023-05-15T12:29:43.002Z,97515.19
2023-05-15T12:32:31.584Z,97640.50
2023-05-15T12:35:16.887Z,97627.00
2023-05-15T12:38:06.562Z,97642.53
2023-05-15T12:40:57.175Z,97488.22
2023-05-15T12:43:43.034Z,97660.03
2023-05-15T12:46:32.710Z,97627.34
2023-05-15T12:49:22.802Z,97501.91
2023-05-15T12:52:10.073Z,97604.63
2023-05-15T12:54:55.990Z,97619.75
2023-05-15T12:57:42.707Z,97615.41
2023-05-15T13:00:32.183Z,97621.19
2023-05-15T13:03:20.449Z,97617.59
2023-05-15T13:06:07.402Z,97466.69
2023-05-15T13:08:55.085Z,97464.13
2023-05-15T13:11:44.944Z,97469.75
2023-05-15T13:14:34.286Z,97472.56
2023-05-15T13:17:21.947Z,97583.34
2023-05-15T13:20:08.865Z,97605.78
2023-05-15T13:22:54.819Z,97593.38
2023-05-15T13:25:40.787Z,97603.63
2023-05-15T13:28:26.351Z,97444.25
2023-05-15T13:31:12.045Z,97603.53
2023-05-15T13:33:57.899Z,97589.59
2023-05-15T13:36:43.304Z,97602.53
2023-05-15T13:39:28.792Z,97583.13
2023-05-15T13:42:14.196Z,97550.75
2023-05-15T13:44:59.431Z,97488.06
2023-05-15T13:47:45.083Z,97568.16
2023-05-15T13:50:30.669Z,97605.59
2023-05-15T13:53:17.049Z,97443.47
2023-05-15T13:56:03.383Z,97516.38
2023-05-15T13:58:48.891Z,97458.09
2023-05-15T14:01:34.179Z,97563.72
2023-05-15T14:04:20.548Z,97602.88
2023-05-15T14:07:06.452Z,97540.53
2023-05-15T14:09:52.111Z,97602.16
2023-05-15T14:12:37.818Z,97462.72
2023-05-15T14:15:23.487Z,97620.41
2023-05-15T14:18:08.935Z,97617.47
2023-05-15T14:20:54.370Z,97627.19
2023-05-15T14:23:39.463Z,97566.91
2023-05-15T14:26:25.097Z,97492.16
2023-05-15T14:29:10.480Z,97478.47
2023-05-15T14:31:55.914Z,97553.94
2023-05-15T14:34:41.250Z,97614.97
2023-05-15T14:37:27.613Z,97456.31
2023-05-15T14:40:13.281Z,97602.09
2023-05-15T14:42:59.111Z,97601.38
2023-05-15T14:45:44.444Z,97574.94
2023-05-15T14:48:30.078Z,97608.34
2023-05-15T14:51:16.036Z,97543.56
2023-05-15T14:54:02.646Z,97608.94
2023-05-15T14:56:48.474Z,97457.38
2023-05-15T14:59:34.192Z,97616.00
2023-05-15T15:02:19.678Z,97464.47
2023-05-15T15:05:05.724Z,97461.66
2023-05-15T15:08:05.424Z,97461.59
2023-05-15T15:10:50.825Z,97581.50
2023-05-15T15:13:36.329Z,97430.69
2023-05-15T15:16:22.516Z,97591.25
2023-05-15T15:19:07.906Z,97623.41
2023-05-15T15:21:53.305Z,97456.63
2023-05-15T15:24:38.598Z,97468.97
2023-05-15T15:27:23.882Z,97545.22
2023-05-15T15:30:11.143Z,97618.78
2023-05-15T15:32:58.221Z,97607.28
2023-05-15T15:35:44.356Z,97443.53
2023-05-15T15:38:29.782Z,97611.34
2023-05-15T15:41:15.132Z,97569.44
2023-05-15T15:44:01.397Z,97682.81
2023-05-15T15:46:47.003Z,97490.19
2023-05-15T15:49:32.402Z,97640.06
2023-05-15T15:52:18.555Z,97622.41
2023-05-15T15:55:04.570Z,97637.91
2023-05-15T15:57:50.183Z,97500.63
2023-05-15T16:00:37.134Z,97654.06
2023-05-15T16:03:22.748Z,97528.25
2023-05-15T16:06:08.177Z,97662.59
2023-05-15T16:08:53.421Z,97538.81
2023-05-15T16:11:38.736Z,97676.59
2023-05-15T16:14:24.568Z,97654.53
2023-05-15T16:17:10.144Z,97685.78
2023-05-15T16:19:56.081Z,97698.19
2023-05-15T16:22:43.097Z,97695.38
2023-05-15T16:25:28.774Z,97693.63
2023-05-15T16:28:14.685Z,97687.78
2023-05-15T16:31:00.837Z,97547.69
2023-05-15T16:33:47.108Z,97666.44
2023-05-15T16:36:32.777Z,97537.03
2023-05-15T16:39:18.076Z,97524.47
2023-05-15T16:42:03.614Z,97676.50
2023-05-15T16:44:49.005Z,97651.63
2023-05-15T16:47:37.618Z,97623.44
2023-05-15T16:50:23.077Z,97647.63
2023-05-15T16:53:08.540Z,97672.06
2023-05-15T16:55:54.089Z,97680.63
2023-05-15T16:58:41.915Z,97650.38
2023-05-15T17:01:27.169Z,97544.47
2023-05-15T17:04:12.568Z,97636.28
2023-05-15T17:06:58.091Z,97537.44
2023-05-15T17:09:44.630Z,97521.41
2023-05-15T17:12:30.551Z,97689.66
2023-05-15T17:15:15.806Z,97690.91
2023-05-15T17:18:01.506Z,97512.97
2023-05-15T17:20:46.822Z,97526.34
2023-05-15T17:23:32.650Z,97661.56
2023-05-15T17:26:18.402Z,97684.50
2023-05-15T17:29:04.154Z,97671.19
2023-05-15T17:31:49.579Z,97666.69
2023-05-15T17:34:35.075Z,97549.75
2023-05-15T17:37:20.303Z,97631.63
2023-05-15T17:40:06.960Z,97672.31
2023-05-15T17:42:52.444Z,97664.25
2023-05-15T17:45:38.050Z,97640.53
2023-05-15T17:48:23.419Z,97516.34
2023-05-15T17:51:08.828Z,97533.56
2023-05-15T17:53:54.276Z,97552.94
2023-05-15T17:56:39.612Z,97671.88
2023-05-15T17:59:25.120Z,97546.81
2023-05-15T18:02:10.656Z,97496.50
2023-05-15T18:04:57.130Z,97528.97
2023-05-15T18:07:42.688Z,97540.69
2023-05-15T18:10:28.097Z,97651.84
2023-05-15T18:13:13.506Z,97665.72
2023-05-15T18:15:58.888Z,97531.84
2023-05-15T18:18:44.111Z,97510.38
2023-05-15T18:21:29.726Z,97640.13
2023-05-15T18:24:15.630Z,97606.91
2023-05-15T18:27:02.339Z,97678.03
2023-05-15T18:29:47.978Z,97678.22
2023-05-15T18:32:34.174Z,97610.06
2023-05-15T18:35:19.493Z,97514.81
2023-05-15T18:38:05.862Z,97657.09
2023-05-15T18:40:52.122Z,97642.84
2023-05-15T18:43:37.954Z,97682.56
2023-05-15T18:46:25.690Z,97526.25
2023-05-15T18:49:11.397Z,97560.19
2023-05-15T18:51:57.982Z,97681.97
2023-05-15T18:54:43.296Z,97663.53
2023-05-15T18:57:28.797Z,97687.13
2023-05-15T19:00:18.866Z,97644.88
2023-05-15T19:03:10.053Z,97508.69
2023-05-15T19:05:56.944Z,97662.28
2023-05-15T19:08:43.035Z,97692.50
2023-05-15T19:11:29.573Z,97566.00
2023-05-15T19:14:15.689Z,97699.63
2023-05-15T19:17:01.809Z,97699.31
2023-05-15T19:19:47.844Z,97702.38
2023-05-15T19:22:33.274Z,97669.31
2023-05-15T19:25:18.747Z,97536.34
2023-05-15T19:28:04.904Z,97674.84
2023-05-15T19:30:50.980Z,97689.72
2023-05-15T19:33:36.710Z,97535.81
2023-05-15T19:36:22.791Z,97678.66
2023-05-15T19:39:08.537Z,97680.91
2023-05-15T19:41:55.791Z,97655.63
2023-05-15T19:44:42.574Z,97677.28
2023-05-15T19:47:28.356Z,97624.94
2023-05-15T19:50:14.122Z,97673.22
2023-05-15T19:52:59.608Z,97600.41
2023-05-15T19:55:45.472Z,97627.28
2023-05-15T19:58:31.867Z,97691.22
2023-05-15T20:01:18.030Z,97671.78
2023-05-15T20:04:03.813Z,97551.34
2023-05-15T20:06:49.068Z,97684.53
2023-05-15T20:09:34.483Z,97527.69
2023-05-15T20:12:19.796Z,97678.59
2023-05-15T20:15:06.907Z,97673.53
2023-05-15T20:17:53.607Z,97670.66
2023-05-15T20:20:39.245Z,97632.56
2023-05-15T20:23:24.695Z,97667.94
2023-05-15T20:26:10.060Z,97669.63
2023-05-15T20:28:55.586Z,97521.66
2023-05-15T20:31:40.954Z,97673.72
2023-05-15T20:34:26.208Z,97641.94
2023-05-15T20:37:13.185Z,97673.53
2023-05-15T20:39:58.788Z,97674.88
2023-05-15T20:42:44.246Z,97511.47
2023-05-15T20:45:29.999Z,97519.13
2023-05-15T20:48:15.208Z,97674.34
2023-05-15T20:51:00.648Z,97694.59
2023-05-15T20:53:46.031Z,97510.91
2023-05-15T20:56:31.816Z,97515.13
2023-05-15T20:59:17.059Z,97675.09
2023-05-15T21:02:02.465Z,97553.84
2023-05-15T21:04:48.076Z,97633.16
2023-05-15T21:07:33.520Z,97644.63
2023-05-15T21:10:20.316Z,97689.06
2023-05-15T21:13:05.760Z,97622.59
2023-05-15T21:15:51.387Z,97504.16
2023-05-15T21:18:39.030Z,97548.59
2023-05-15T21:21:24.879Z,97710.69
2023-05-15T21:24:10.383Z,97696.63
2023-05-15T21:26:55.943Z,97694.25
2023-05-15T21:29:41.177Z,97545.47
2023-05-15T21:32:26.524Z,97643.66
2023-05-15T21:35:12.034Z,97707.06
2023-05-15T21:37:57.776Z,97728.16
2023-05-15T21:40:43.267Z,97599.56
2023-05-15T21:43:28.582Z,97653.09
2023-05-15T21:46:13.979Z,97539.88
2023-05-15T21:48:59.710Z,97546.19
2023-05-15T21:51:45.246Z,97681.94
2023-05-15T21:54:30.758Z,97538.03
2023-05-15T21:57:16.111Z,97595.63
2023-05-15T22:00:01.482Z,97665.31
2023-05-15T22:02:46.745Z,97655.94
2023-05-15T22:05:32.110Z,97694.03
2023-05-15T22:08:18.961Z,97712.81
2023-05-15T22:11:05.167Z,97704.47
2023-05-15T22:13:50.716Z,97690.78
2023-05-15T22:16:36.450Z,97689.75
2023-05-15T22:19:32.702Z,97726.84
2023-05-15T22:22:20.890Z,97590.50
2023-05-15T22:25:06.893Z,97487.50
2023-05-15T22:27:52.595Z,97517.31
2023-05-15T22:30:38.217Z,97534.56
2023-05-15T22:33:24.409Z,97549.19
2023-05-15T22:36:10.036Z,97683.72
2023-05-15T22:38:55.392Z,97685.72
2023-05-15T22:41:40.760Z,97681.56
2023-05-15T22:44:26.085Z,97528.75
2023-05-15T22:47:11.573Z,97538.81
2023-05-15T22:49:57.080Z,97521.66
2023-05-15T22:52:42.384Z,97691.09
2023-05-15T22:55:28.138Z,97696.63
2023-05-15T22:58:13.833Z,97527.88
2023-05-15T23:01:00.185Z,97695.69
2023-05-15T23:03:46.266Z,97540.16
2023-05-15T23:06:33.712Z,97620.28
2023-05-15T23:09:19.345Z,97693.75
2023-05-15T23:12:05.003Z,97536.22
2023-05-15T23:14:51.738Z,97663.41
2023-05-15T23:17:37.182Z,97654.91
2023-05-15T23:20:22.616Z,97680.94
2023-05-15T23:23:07.910Z,97684.03
2023-05-15T23:25:53.507Z,97635.78
2023-05-15T23:28:39.035Z,97569.47
2023-05-15T23:31:24.331Z,97512.78
2023-05-15T23:34:09.906Z,97682.25
2023-05-15T23:36:55.333Z,97669.94
2023-05-15T23:39:40.663Z,97696.25
2023-05-15T23:42:25.893Z,97532.13
2023-05-15T23:45:13.719Z,97647.38
2023-05-15T23:47:59.273Z,97513.66
2023-05-15T23:50:45.183Z,97526.66
2023-05-15T23:53:31.187Z,97680.16
2023-05-15T23:56:16.478Z,97651.00
2023-05-15T23:59:01.891Z,97608.78
